Flight Track Log - Related Links

Times and Time Zones

All times are in EDT time to prevent confusion due to time zone crossing. See the CSZ9004 flight status page for this flight to view local times or setup timezone preferences in your user account.

Time Position Orientation Groundspeed Altitude Reporting Facility
EDT Latitude Longitude Course Direction KTS MPH feet Rate Location/Type
Thu 07:21:06 PM 20.8013 111.7547 101° East 445 512 30,800  Level FlightAware ADS-B
Thu 07:26:48 PM 21.1645 112.3482 55° Northeast 390 449 21,200 -1,681 Descending FlightAware ADS-B
Thu 07:27:28 PM 21.1971 112.3984 55° Northeast 384 442 20,100 -1,671 Descending FlightAware ADS-B
Thu 07:28:07 PM 21.2367 112.4596 56° Northeast 380 437 19,000 -1,747 Descending FlightAware ADS-B
Thu 07:28:47 PM 21.2848 112.5343 55° Northeast 375 432 17,800 -1,650 Descending FlightAware ADS-B
Thu 07:29:27 PM 21.3276 112.6006 55° Northeast 368 423 16,800 -1,259 Descending FlightAware ADS-B
Thu 07:30:08 PM 21.3652 112.6590 56° Northeast 366 421 16,100 -1,125 Descending FlightAware ADS-B
Thu 07:30:47 PM 21.4001 112.7131 56° Northeast 363 418 15,300 -1,200 Descending FlightAware ADS-B
Thu 07:31:28 PM 21.4436 112.7809 55° Northeast 360 414 14,500 -1,125 Descending FlightAware ADS-B
Thu 07:32:07 PM 21.4707 112.8229 56° Northeast 359 413 13,800 -1,125 Descending FlightAware ADS-B
Thu 07:32:48 PM 21.5161 112.8937 56° Northeast 353 406 13,000 -1,037 Descending FlightAware ADS-B
Thu 07:33:28 PM 21.5599 112.9494 37° Northeast 355 409 12,400 -1,000 Descending FlightAware ADS-B
Thu 07:33:48 PM 21.5866 112.9649 24° Northeast 354 407 12,000 -1,034 Descending FlightAware ADS-B
Thu 07:34:26 PM 21.6417 112.9913 24° Northeast 338 389 11,400 -1,050 Descending FlightAware ADS-B
Thu 07:35:08 PM 21.6973 113.0181 24° Northeast 320 368 10,600 -439 Descending FlightAware ADS-B
Thu 07:39:27 PM 22.0321 113.1808 24° Northeast 303 349 9,200 -282 Descending FlightAware ADS-B
Thu 07:40:27 PM 22.1153 113.2213 25° Northeast 306 352 9,100 -296 Descending FlightAware ADS-B
Thu 07:40:48 PM 22.1409 113.2337 25° Northeast 304 350 8,800 -878 Descending FlightAware ADS-B
Thu 07:41:08 PM 22.1684 113.2472 25° Northeast 304 350 8,500 -769 Descending FlightAware ADS-B
Thu 07:41:27 PM 22.1906 113.2581 24° Northeast 303 349 8,300 -632 Descending FlightAware ADS-B
Thu 07:43:00 PM 22.6395 113.8124 49° Northeast  Level Estimated
Thu 07:44:00 PM 22.6395 113.8124 North  Level Estimated
Thu 07:45:00 PM 22.6395 113.8124 North  Level Estimated
Thu 07:46:00 PM 22.6395 113.8124 North  Level Estimated
Thu 07:47:00 PM 22.6395 113.8124 North  Level Estimated
Thu 07:48:00 PM 22.6395 113.8124 North  Level Estimated
Thu 07:49:00 PM 22.6395 113.8124 North  Level Estimated
Thu 07:50:00 PM 22.6395 113.8124 North  Level Estimated
Thu 07:51:00 PM 22.6395 113.8124 North  Level Estimated
Thu 07:52:00 PM 22.6395 113.8124 North  Level Estimated
Thu 07:53:00 PM 22.6395 113.8124 North  Level Estimated
Thu 07:54:00 PM 22.6395 113.8124 North  Level Estimated
Thu 07:55:00 PM 22.6395 113.8124 North  Level Estimated
Thu 07:56:00 PM 22.6395 113.8124 North  Level Estimated

Login

Don't have an account? Register now (free) for customized features, flight alerts, and more!